createdAt,value
2022-08-31T00:00:30.575Z,43.90
2022-08-31T00:03:16.253Z,44.00
2022-08-31T00:05:44.378Z,43.90
2022-08-31T00:08:12.414Z,44.40
2022-08-31T00:10:46.020Z,44.30
2022-08-31T00:13:14.467Z,44.20
2022-08-31T00:15:43.179Z,44.20
2022-08-31T00:18:11.698Z,44.40
2022-08-31T00:20:40.423Z,44.80
2022-08-31T00:23:11.478Z,44.90
2022-08-31T00:25:42.742Z,44.80
2022-08-31T00:28:12.550Z,45.40
2022-08-31T00:30:41.671Z,44.90
2022-08-31T00:33:11.541Z,44.90
2022-08-31T00:35:41.995Z,45.20
2022-08-31T00:38:11.747Z,45.00
2022-08-31T00:40:44.438Z,45.30
2022-08-31T00:43:13.516Z,45.80
2022-08-31T00:45:41.527Z,46.00
2022-08-31T00:48:09.460Z,46.40
2022-08-31T00:50:37.426Z,46.20
2022-08-31T00:53:05.423Z,46.50
2022-08-31T00:55:35.675Z,45.90
2022-08-31T00:58:08.206Z,46.30
2022-08-31T01:00:36.471Z,47.20
2022-08-31T01:03:07.994Z,47.10
2022-08-31T01:05:36.758Z,47.00
2022-08-31T01:08:06.325Z,46.90
2022-08-31T01:10:37.908Z,48.00
2022-08-31T01:13:08.993Z,48.40
2022-08-31T01:15:38.796Z,47.70
2022-08-31T01:18:07.793Z,47.70
2022-08-31T01:20:49.154Z,48.10
2022-08-31T01:23:22.511Z,47.90
2022-08-31T01:25:52.006Z,48.40
2022-08-31T01:28:19.906Z,48.80
2022-08-31T01:31:00.382Z,49.00
2022-08-31T01:33:28.417Z,48.60
2022-08-31T01:35:58.624Z,49.70
2022-08-31T01:38:29.014Z,49.10
2022-08-31T01:40:59.535Z,49.50
2022-08-31T01:43:27.448Z,49.10
2022-08-31T01:45:55.732Z,49.30
2022-08-31T01:48:24.462Z,50.00
2022-08-31T01:50:52.419Z,49.90
2022-08-31T01:53:20.366Z,50.20
2022-08-31T01:55:49.676Z,50.00
2022-08-31T01:58:17.818Z,50.00
2022-08-31T02:00:46.035Z,49.90
2022-08-31T02:03:14.555Z,49.90
2022-08-31T02:05:42.590Z,49.90
2022-08-31T02:08:11.917Z,49.90
2022-08-31T02:10:40.002Z,49.10
2022-08-31T02:13:09.419Z,49.30
2022-08-31T02:15:39.254Z,49.80
2022-08-31T02:18:07.265Z,49.90
2022-08-31T02:20:36.311Z,50.20
2022-08-31T02:23:04.525Z,49.90
2022-08-31T02:25:32.540Z,49.70
2022-08-31T02:28:00.449Z,49.30
2022-08-31T02:30:30.072Z,49.50
2022-08-31T02:32:58.091Z,49.00
2022-08-31T02:35:26.180Z,49.20
2022-08-31T02:37:54.108Z,48.90
2022-08-31T02:40:22.309Z,48.80
2022-08-31T02:42:52.779Z,48.80
2022-08-31T02:45:21.928Z,48.60
2022-08-31T02:47:51.692Z,48.70
2022-08-31T02:50:20.227Z,48.60
2022-08-31T02:52:49.927Z,48.40
2022-08-31T02:55:18.219Z,48.50
2022-08-31T02:57:50.087Z,48.40
2022-08-31T03:00:18.386Z,47.90
2022-08-31T03:02:46.333Z,48.20
2022-08-31T03:05:15.935Z,47.90
2022-08-31T03:07:44.061Z,48.60
2022-08-31T03:10:14.797Z,49.10
2022-08-31T03:12:42.895Z,48.90
2022-08-31T03:15:12.491Z,48.90
2022-08-31T03:17:40.436Z,48.60
2022-08-31T03:20:09.406Z,48.90
2022-08-31T03:22:39.784Z,48.90
2022-08-31T03:25:10.081Z,48.80
2022-08-31T03:27:39.032Z,48.70
2022-08-31T03:30:09.945Z,48.60
2022-08-31T03:32:37.929Z,48.60
2022-08-31T03:35:06.941Z,48.70
2022-08-31T03:37:35.688Z,48.60
2022-08-31T03:40:07.193Z,48.50
2022-08-31T03:42:35.486Z,48.30
2022-08-31T03:45:03.571Z,49.00
2022-08-31T03:47:31.586Z,49.30
2022-08-31T03:49:59.995Z,49.70
2022-08-31T03:52:27.949Z,49.50
2022-08-31T03:54:55.991Z,49.50
2022-08-31T03:57:25.324Z,49.70
2022-08-31T03:59:54.984Z,49.60
2022-08-31T04:02:24.061Z,49.30
2022-08-31T04:04:53.033Z,49.90
2022-08-31T04:07:21.797Z,49.50
2022-08-31T04:09:50.460Z,50.00
2022-08-31T04:12:19.908Z,49.80
2022-08-31T04:14:49.252Z,49.50
2022-08-31T04:17:17.235Z,49.00
2022-08-31T04:19:45.156Z,49.10
2022-08-31T04:22:13.193Z,48.70
2022-08-31T04:24:41.144Z,48.40
2022-08-31T04:27:09.097Z,48.20
2022-08-31T04:29:36.988Z,48.10
2022-08-31T04:32:06.632Z,47.90
2022-08-31T04:34:34.578Z,47.80
2022-08-31T04:37:02.674Z,48.00
2022-08-31T04:39:33.923Z,47.90
2022-08-31T04:42:02.123Z,47.50
2022-08-31T04:44:30.126Z,47.50
2022-08-31T04:46:58.106Z,47.80
2022-08-31T04:49:27.429Z,47.80
2022-08-31T04:51:55.452Z,47.60
2022-08-31T04:54:23.401Z,47.90
2022-08-31T04:56:51.345Z,47.80
2022-08-31T04:59:19.563Z,47.90
2022-08-31T05:01:47.700Z,47.40
2022-08-31T05:04:16.849Z,47.80
2022-08-31T05:06:47.529Z,47.40
2022-08-31T05:09:19.335Z,47.40
2022-08-31T05:11:47.895Z,47.60
2022-08-31T05:14:15.936Z,47.30
2022-08-31T05:16:44.566Z,47.30
2022-08-31T05:19:12.594Z,47.30
2022-08-31T05:21:42.788Z,47.20
2022-08-31T05:24:14.456Z,46.90
2022-08-31T05:26:45.153Z,47.00
2022-08-31T05:29:15.260Z,46.80
2022-08-31T05:31:47.172Z,46.80
2022-08-31T05:34:17.845Z,47.10
2022-08-31T05:36:50.028Z,46.90
2022-08-31T05:39:19.614Z,46.90
2022-08-31T05:41:48.710Z,46.60
2022-08-31T05:44:18.075Z,46.80
2022-08-31T05:46:57.243Z,46.70
2022-08-31T05:49:32.245Z,46.50
2022-08-31T05:52:00.722Z,46.60
2022-08-31T05:54:30.156Z,46.60
2022-08-31T05:57:01.161Z,46.90
2022-08-31T05:59:30.971Z,46.50
2022-08-31T06:01:59.292Z,46.40
2022-08-31T06:04:27.992Z,46.50
2022-08-31T06:06:56.140Z,46.00
2022-08-31T06:09:24.319Z,45.90
2022-08-31T06:11:54.328Z,46.20
2022-08-31T06:14:23.819Z,45.90
2022-08-31T06:16:52.555Z,45.80
2022-08-31T06:19:21.526Z,45.70
2022-08-31T06:21:51.012Z,45.70
2022-08-31T06:24:19.762Z,45.50
2022-08-31T06:26:58.821Z,46.30
2022-08-31T06:29:29.388Z,46.10
2022-08-31T06:31:57.485Z,45.10
2022-08-31T06:34:25.480Z,45.30
2022-08-31T06:36:53.352Z,45.30
2022-08-31T06:39:21.351Z,44.70
2022-08-31T06:41:52.581Z,44.80
2022-08-31T06:44:22.288Z,44.60
2022-08-31T06:46:52.058Z,44.10
2022-08-31T06:49:20.490Z,43.80
2022-08-31T06:51:48.608Z,43.60
2022-08-31T06:54:29.396Z,43.70
2022-08-31T06:56:59.068Z,43.50
2022-08-31T06:59:29.356Z,43.40
2022-08-31T07:01:59.572Z,43.30
2022-08-31T07:04:27.766Z,43.70
2022-08-31T07:06:55.774Z,42.60
2022-08-31T07:09:23.825Z,43.50
2022-08-31T07:11:53.618Z,43.70
2022-08-31T07:14:23.733Z,43.60
2022-08-31T07:16:53.325Z,43.60
2022-08-31T07:19:23.547Z,43.20
2022-08-31T07:21:53.600Z,43.60
2022-08-31T07:24:24.248Z,43.60
2022-08-31T07:26:54.376Z,43.70
2022-08-31T07:29:23.944Z,43.20
2022-08-31T07:31:52.985Z,43.40
2022-08-31T07:34:26.673Z,43.30
2022-08-31T07:37:13.380Z,43.40
2022-08-31T07:40:02.252Z,43.30
2022-08-31T07:42:35.074Z,43.10
2022-08-31T07:45:06.365Z,43.40
2022-08-31T07:47:46.070Z,43.00
2022-08-31T07:50:17.268Z,42.80
2022-08-31T07:52:48.472Z,42.50
2022-08-31T07:55:18.538Z,42.00
2022-08-31T07:57:47.205Z,41.70
2022-08-31T08:00:18.171Z,41.60
2022-08-31T08:02:52.986Z,40.90
2022-08-31T08:05:27.232Z,41.00
2022-08-31T08:08:00.148Z,41.20
2022-08-31T08:10:30.069Z,41.20
2022-08-31T08:13:05.244Z,40.20
2022-08-31T08:15:36.048Z,40.20
2022-08-31T08:18:05.302Z,39.60
2022-08-31T08:20:38.541Z,39.60
2022-08-31T08:23:11.550Z,38.80
2022-08-31T08:25:44.144Z,38.20
2022-08-31T08:28:38.259Z,38.50
2022-08-31T08:31:05.922Z,38.20
2022-08-31T08:33:36.013Z,37.70
2022-08-31T08:36:08.277Z,38.10
2022-08-31T08:38:39.260Z,37.90
2022-08-31T08:41:19.176Z,38.10
2022-08-31T08:43:52.348Z,38.10
2022-08-31T08:46:36.608Z,37.90
2022-08-31T08:49:13.449Z,38.60
2022-08-31T08:51:43.630Z,38.70
2022-08-31T08:54:15.234Z,38.90
2022-08-31T08:56:49.052Z,38.40
2022-08-31T08:59:20.065Z,39.00
2022-08-31T09:01:53.117Z,37.90
2022-08-31T09:04:39.765Z,38.80
2022-08-31T09:07:31.002Z,37.90
2022-08-31T09:10:06.495Z,37.90
2022-08-31T09:12:44.836Z,38.10
2022-08-31T09:15:48.760Z,38.20
2022-08-31T09:18:30.520Z,38.10
2022-08-31T09:21:03.980Z,37.70
2022-08-31T09:23:41.155Z,37.20
2022-08-31T09:26:11.177Z,37.00
2022-08-31T09:28:48.179Z,36.90
2022-08-31T09:31:37.382Z,35.40
2022-08-31T09:34:14.285Z,36.00
2022-08-31T09:36:42.551Z,36.90
2022-08-31T09:39:33.111Z,35.90
2022-08-31T09:42:15.581Z,36.00
2022-08-31T09:44:47.348Z,35.80
2022-08-31T09:47:48.543Z,36.10
2022-08-31T09:50:33.161Z,35.70
2022-08-31T09:53:42.174Z,34.90
2022-08-31T09:56:19.803Z,35.40
2022-08-31T09:58:50.841Z,34.00
2022-08-31T10:01:24.554Z,34.60
2022-08-31T10:04:09.832Z,35.10
2022-08-31T10:06:47.199Z,35.00
2022-08-31T10:09:28.610Z,33.60
2022-08-31T10:12:00.563Z,32.90
2022-08-31T10:14:36.917Z,33.00
2022-08-31T10:17:11.417Z,33.10
2022-08-31T10:19:56.350Z,33.20
2022-08-31T10:22:32.781Z,33.30
2022-08-31T10:25:18.305Z,32.70
2022-08-31T10:27:52.597Z,32.40
2022-08-31T10:30:30.262Z,31.70
2022-08-31T10:33:12.899Z,32.00
2022-08-31T10:35:51.979Z,31.90
2022-08-31T10:38:27.146Z,31.70
2022-08-31T10:41:07.567Z,31.10
2022-08-31T10:43:44.737Z,32.50
2022-08-31T10:46:12.927Z,32.50
2022-08-31T10:48:44.145Z,31.40
2022-08-31T10:51:22.324Z,33.00
2022-08-31T10:54:02.988Z,32.00
2022-08-31T10:56:39.900Z,32.00
2022-08-31T10:59:20.332Z,32.30
2022-08-31T11:01:56.693Z,32.10
2022-08-31T11:04:52.942Z,31.10
2022-08-31T11:07:34.749Z,31.70
2022-08-31T11:10:16.511Z,31.90
2022-08-31T11:12:52.203Z,31.50
2022-08-31T11:15:48.569Z,31.70
2022-08-31T11:18:41.147Z,31.10
2022-08-31T11:21:35.987Z,29.70
2022-08-31T11:24:18.571Z,29.80
2022-08-31T11:26:55.024Z,30.00
2022-08-31T11:29:41.573Z,30.80
2022-08-31T11:32:16.806Z,31.60
2022-08-31T11:34:50.608Z,32.50
2022-08-31T11:37:50.962Z,32.90
2022-08-31T11:40:52.245Z,32.90
2022-08-31T11:43:52.152Z,32.90
2022-08-31T11:46:45.764Z,31.60
2022-08-31T11:49:38.213Z,32.30
2022-08-31T11:52:10.323Z,31.80
2022-08-31T11:54:59.312Z,31.20
2022-08-31T11:57:35.627Z,30.70
2022-08-31T12:00:20.750Z,30.60
2022-08-31T12:03:04.474Z,31.20
2022-08-31T12:05:58.029Z,30.60
2022-08-31T12:08:28.359Z,30.60
2022-08-31T12:11:03.524Z,30.00
2022-08-31T12:13:45.846Z,29.70
2022-08-31T12:16:28.107Z,30.10
2022-08-31T12:19:08.269Z,31.00
2022-08-31T12:22:04.344Z,31.20
2022-08-31T12:24:40.622Z,31.00
2022-08-31T12:27:27.538Z,32.00
2022-08-31T12:30:22.497Z,31.20
2022-08-31T12:32:59.113Z,31.70
2022-08-31T12:35:29.076Z,31.20
2022-08-31T12:38:03.673Z,30.60
2022-08-31T12:40:34.133Z,31.00
2022-08-31T12:43:06.569Z,31.50
2022-08-31T12:46:03.777Z,31.40
2022-08-31T12:48:46.161Z,31.50
2022-08-31T12:51:35.142Z,31.40
2022-08-31T12:54:20.877Z,31.20
2022-08-31T12:56:57.732Z,31.50
2022-08-31T12:59:57.311Z,31.30
2022-08-31T13:02:25.699Z,31.20
2022-08-31T13:04:54.644Z,31.40
2022-08-31T13:07:25.057Z,31.10
2022-08-31T13:10:06.771Z,30.60
2022-08-31T13:12:35.264Z,31.00
2022-08-31T13:15:03.433Z,31.10
2022-08-31T13:17:36.878Z,30.70
2022-08-31T13:20:08.507Z,31.10
2022-08-31T13:22:41.187Z,30.50
2022-08-31T13:25:16.774Z,30.40
2022-08-31T13:27:49.649Z,30.60
2022-08-31T13:30:21.306Z,30.60
2022-08-31T13:32:51.138Z,30.00
2022-08-31T13:35:22.496Z,30.00
2022-08-31T13:38:04.905Z,29.70
2022-08-31T13:40:37.503Z,29.80
2022-08-31T13:43:08.398Z,29.40
2022-08-31T13:45:43.156Z,29.60
2022-08-31T13:48:16.338Z,29.60
2022-08-31T13:50:53.377Z,29.50
2022-08-31T13:53:43.063Z,29.40
2022-08-31T13:56:53.088Z,29.20
2022-08-31T13:59:31.047Z,28.60
2022-08-31T14:02:02.705Z,28.50
2022-08-31T14:04:48.438Z,28.00
2022-08-31T14:07:21.416Z,28.50
2022-08-31T14:09:52.106Z,27.50
2022-08-31T14:12:36.244Z,27.60
2022-08-31T14:15:09.148Z,27.50
2022-08-31T14:17:42.263Z,28.60
2022-08-31T14:20:33.941Z,29.10
2022-08-31T14:23:35.042Z,29.50
2022-08-31T14:26:05.701Z,29.70
2022-08-31T14:28:42.762Z,30.00
2022-08-31T14:31:22.230Z,30.00
2022-08-31T14:33:55.979Z,30.10
2022-08-31T14:36:26.128Z,30.40
2022-08-31T14:38:54.339Z,30.70
2022-08-31T14:41:30.481Z,30.80
2022-08-31T14:44:06.952Z,30.30
2022-08-31T14:46:36.973Z,30.40
2022-08-31T14:49:06.134Z,30.40
2022-08-31T14:51:34.173Z,31.20
2022-08-31T14:54:02.648Z,30.50
2022-08-31T14:56:34.667Z,31.00
2022-08-31T14:59:12.534Z,30.90
2022-08-31T15:01:44.412Z,31.20
2022-08-31T15:04:13.918Z,31.60
2022-08-31T15:06:42.914Z,31.70
2022-08-31T15:09:11.188Z,32.00
2022-08-31T15:11:41.097Z,32.30
2022-08-31T15:14:12.344Z,32.30
2022-08-31T15:16:45.408Z,32.30
2022-08-31T15:19:14.148Z,32.20
2022-08-31T15:21:51.798Z,32.10
2022-08-31T15:24:21.102Z,32.50
2022-08-31T15:26:49.408Z,32.70
2022-08-31T15:29:19.729Z,32.60
2022-08-31T15:31:50.110Z,33.20
2022-08-31T15:34:23.617Z,33.20
2022-08-31T15:36:56.011Z,33.20
2022-08-31T15:39:24.827Z,33.10
2022-08-31T15:41:52.885Z,32.90
2022-08-31T15:44:22.613Z,32.80
2022-08-31T15:47:08.251Z,32.50
2022-08-31T15:49:40.243Z,32.70
2022-08-31T15:52:10.466Z,32.20
2022-08-31T15:54:40.542Z,32.30
2022-08-31T15:57:12.225Z,32.30
2022-08-31T15:59:43.574Z,32.30
2022-08-31T16:02:13.556Z,32.40
2022-08-31T16:04:43.913Z,32.20
2022-08-31T16:07:13.748Z,32.10
2022-08-31T16:09:44.659Z,32.10
2022-08-31T16:12:13.754Z,32.00
2022-08-31T16:14:45.209Z,32.00
2022-08-31T16:17:14.474Z,32.00
2022-08-31T16:19:42.964Z,32.20
2022-08-31T16:22:10.986Z,32.50
2022-08-31T16:24:39.735Z,32.60
2022-08-31T16:27:11.458Z,32.80
2022-08-31T16:29:40.150Z,32.00
2022-08-31T16:32:09.871Z,32.70
2022-08-31T16:34:39.230Z,32.60
2022-08-31T16:37:08.364Z,32.40
2022-08-31T16:39:37.645Z,32.60
2022-08-31T16:42:06.756Z,32.70
2022-08-31T16:44:36.590Z,32.50
2022-08-31T16:47:06.749Z,32.30
2022-08-31T16:49:36.397Z,32.00
2022-08-31T16:52:07.491Z,32.10
2022-08-31T16:54:36.191Z,32.00
2022-08-31T16:57:04.568Z,32.00
2022-08-31T16:59:32.659Z,32.00
2022-08-31T17:02:00.892Z,31.90
2022-08-31T17:04:50.944Z,31.90
2022-08-31T17:07:19.852Z,32.20
2022-08-31T17:09:47.996Z,31.80
2022-08-31T17:12:21.805Z,31.80
2022-08-31T17:14:52.743Z,31.70
2022-08-31T17:17:22.990Z,31.70
2022-08-31T17:19:52.222Z,32.20
2022-08-31T17:22:29.979Z,32.30
2022-08-31T17:25:03.006Z,32.40
2022-08-31T17:27:35.569Z,32.30
2022-08-31T17:30:07.250Z,32.30
2022-08-31T17:32:41.800Z,32.40
2022-08-31T17:35:18.152Z,32.50
2022-08-31T17:37:49.962Z,32.80
2022-08-31T17:40:18.127Z,32.80
2022-08-31T17:42:46.384Z,32.90
2022-08-31T17:45:15.584Z,33.00
2022-08-31T17:47:43.672Z,33.20
2022-08-31T17:50:13.985Z,33.40
2022-08-31T17:52:42.025Z,33.40
2022-08-31T17:55:11.822Z,33.60
2022-08-31T17:57:41.747Z,33.80
2022-08-31T18:00:14.466Z,33.80
2022-08-31T18:02:43.618Z,34.20
2022-08-31T18:05:16.215Z,34.40
2022-08-31T18:07:44.221Z,34.40
2022-08-31T18:10:14.834Z,34.80
2022-08-31T18:12:43.051Z,35.10
2022-08-31T18:15:12.828Z,35.30
2022-08-31T18:17:40.896Z,35.30
2022-08-31T18:20:10.751Z,35.60
2022-08-31T18:22:39.901Z,35.60
2022-08-31T18:25:08.420Z,35.80
2022-08-31T18:27:37.757Z,36.00
2022-08-31T18:30:06.982Z,36.00
2022-08-31T18:32:36.329Z,36.10
2022-08-31T18:35:05.954Z,36.10
2022-08-31T18:37:34.899Z,36.20
2022-08-31T18:40:21.125Z,36.50
2022-08-31T18:43:08.079Z,36.80
2022-08-31T18:45:39.577Z,36.80
2022-08-31T18:48:24.199Z,36.80
2022-08-31T18:50:59.011Z,36.60
2022-08-31T18:53:30.319Z,37.50
2022-08-31T18:56:00.620Z,37.00
2022-08-31T18:58:30.080Z,37.40
2022-08-31T19:00:59.435Z,38.00
2022-08-31T19:03:28.597Z,38.20
2022-08-31T19:05:57.443Z,38.40
2022-08-31T19:08:26.141Z,38.60
2022-08-31T19:10:57.310Z,38.80
2022-08-31T19:13:26.290Z,38.70
2022-08-31T19:16:01.308Z,39.40
2022-08-31T19:18:31.730Z,39.80
2022-08-31T19:20:59.756Z,40.10
2022-08-31T19:23:28.258Z,39.80
2022-08-31T19:25:56.289Z,40.50
2022-08-31T19:28:24.308Z,40.70
2022-08-31T19:30:52.266Z,40.80
2022-08-31T19:33:24.806Z,41.00
2022-08-31T19:35:59.379Z,40.90
2022-08-31T19:38:31.455Z,40.60
2022-08-31T19:41:00.751Z,40.50
2022-08-31T19:43:53.606Z,40.50
2022-08-31T19:46:22.701Z,40.60
2022-08-31T19:48:53.488Z,40.70
2022-08-31T19:51:23.217Z,40.90
2022-08-31T19:53:52.034Z,41.10
2022-08-31T19:56:23.304Z,41.20
2022-08-31T19:58:56.430Z,41.20
2022-08-31T20:01:28.256Z,41.80
2022-08-31T20:03:57.872Z,42.10
2022-08-31T20:06:26.367Z,42.40
2022-08-31T20:08:55.037Z,42.30
2022-08-31T20:11:26.502Z,42.60
2022-08-31T20:13:55.730Z,42.50
2022-08-31T20:16:33.340Z,42.50
2022-08-31T20:19:04.774Z,41.90
2022-08-31T20:21:34.929Z,42.60
2022-08-31T20:24:05.525Z,42.70
2022-08-31T20:26:38.233Z,42.00
2022-08-31T20:29:16.103Z,42.30
2022-08-31T20:31:47.122Z,42.90
2022-08-31T20:34:19.171Z,43.10
2022-08-31T20:36:50.137Z,43.60
2022-08-31T20:39:19.743Z,43.80
2022-08-31T20:41:49.461Z,43.30
2022-08-31T20:44:20.593Z,43.10
2022-08-31T20:47:09.398Z,43.50
2022-08-31T20:49:41.737Z,44.20
2022-08-31T20:52:12.080Z,44.60
2022-08-31T20:54:42.994Z,45.00
2022-08-31T20:57:12.268Z,44.80
2022-08-31T20:59:41.424Z,45.40
2022-08-31T21:02:10.645Z,45.30
2022-08-31T21:04:44.621Z,44.50
2022-08-31T21:07:15.430Z,43.90
2022-08-31T21:09:45.246Z,43.60
2022-08-31T21:12:17.866Z,43.10
2022-08-31T21:14:46.784Z,42.70
2022-08-31T21:17:15.971Z,42.70
2022-08-31T21:19:45.902Z,42.80
2022-08-31T21:22:17.217Z,42.60
2022-08-31T21:24:46.519Z,42.70
2022-08-31T21:27:17.207Z,42.90
2022-08-31T21:29:47.035Z,42.80
2022-08-31T21:32:16.537Z,42.70
2022-08-31T21:34:46.431Z,42.70
2022-08-31T21:37:14.419Z,42.80
2022-08-31T21:39:42.644Z,43.00
2022-08-31T21:42:10.660Z,42.80
2022-08-31T21:44:39.436Z,42.90
2022-08-31T21:47:07.987Z,42.80
2022-08-31T21:49:35.944Z,43.40
2022-08-31T21:52:05.569Z,44.20
2022-08-31T21:54:33.471Z,44.50
2022-08-31T21:57:03.819Z,44.40
2022-08-31T21:59:35.178Z,44.70
2022-08-31T22:02:06.478Z,44.50
2022-08-31T22:04:38.802Z,44.50
2022-08-31T22:07:09.519Z,44.60
2022-08-31T22:09:38.140Z,45.20
2022-08-31T22:12:07.452Z,45.00
2022-08-31T22:14:37.984Z,45.40
2022-08-31T22:17:08.388Z,45.40
2022-08-31T22:19:38.910Z,45.70
2022-08-31T22:22:11.910Z,45.80
2022-08-31T22:27:30.034Z,45.50
2022-08-31T22:29:57.961Z,45.40
2022-08-31T22:31:21.765Z,45.90
2022-08-31T22:32:25.915Z,45.70
2022-08-31T22:34:53.831Z,45.60
2022-08-31T22:37:23.210Z,45.80
2022-08-31T22:39:55.250Z,45.90
2022-08-31T22:42:23.225Z,46.20
2022-08-31T22:44:51.785Z,46.60
2022-08-31T22:47:19.701Z,46.60
2022-08-31T22:49:47.625Z,46.70
2022-08-31T22:52:17.405Z,46.80
2022-08-31T22:54:46.862Z,46.80
2022-08-31T22:57:14.799Z,46.30
2022-08-31T22:59:42.714Z,46.20
2022-08-31T23:02:10.620Z,46.80
2022-08-31T23:04:43.925Z,46.80
2022-08-31T23:07:16.268Z,46.80
2022-08-31T23:09:46.229Z,46.10
2022-08-31T23:12:14.176Z,46.00
2022-08-31T23:14:42.649Z,45.70
2022-08-31T23:17:10.624Z,45.70
2022-08-31T23:19:41.253Z,45.60
2022-08-31T23:22:15.236Z,45.30
2022-08-31T23:24:46.310Z,45.20
2022-08-31T23:27:19.320Z,45.20
2022-08-31T23:29:49.389Z,44.80
2022-08-31T23:32:20.904Z,44.50
2022-08-31T23:34:52.538Z,44.30
2022-08-31T23:37:24.117Z,44.30
2022-08-31T23:39:55.891Z,44.00
2022-08-31T23:42:26.905Z,44.20
2022-08-31T23:44:55.342Z,44.10
2022-08-31T23:47:25.790Z,44.00
2022-08-31T23:49:55.001Z,44.10
2022-08-31T23:52:25.505Z,44.00
2022-08-31T23:54:56.492Z,44.00
2022-08-31T23:57:33.021Z,44.20
